AirNav   Air Wisconsin pilot careers
 
 547 users online  

1TX4 New Gulf Airport
New Gulf, Texas, USA


FAA INFORMATION EFFECTIVE 12 OCTOBER 2017

Location

FAA Identifier: 1TX4
Lat/Long: 29-16-24.0250N / 095-53-12.8500W
29-16.400417N / 095-53.214167W
29.2733403 / -95.8869028
(estimated)
Elevation: 100 ft. / 30 m (estimated)
From city: 2 miles E of NEW GULF, TX
Time zone: UTC -5 (UTC -6 during Standard Time)
Zip code: 77420

Airport Operations

Airport use: Private use. Permission required prior to landing
Activation date: 08/2003
Control tower: no
ARTCC: HOUSTON CENTER
FSS: MONTGOMERY COUNTY FLIGHT SERVICE STATION
Attendance: UNATNDD
Segmented circle: no

Airport Communications

WX AWOS-3 at ARM (14 nm W): 118.475 (979-532-2791)
WX AWOS-3 at BYY (18 nm S): 118.075 (979-323-1801)

Nearby radio navigation aids

VOR radial/distance  VOR name  Freq  Var
ELAr128/32.4EAGLE LAKE VOR/DME116.4008E
PSXr028/37.6PALACIOS VORTAC117.3008E
HUBr229/39.3HOBBY VOR/DME117.1005E

 
NDB name  Hdg/Dist  Freq  Var  ID
WHARTON079/13.924506EARM .- .-. --

Airport Services

Runway Information

Runway 15/33

Dimensions: 4300 x 75 ft. / 1311 x 23 m
Surface: asphalt, in poor condition
RY HAS LOOSE AGGREGATE, CRACKING & UNEVEN PATCHES.
Runway edge markings: NO RY NR. RY MARKINGS 4 INCHES WIDE, NSTD SPACING, DO NOT EXTEND FULL RY LENGTH & CNTRLN OFFSET APPROXLY 12 FT ON RY END.
RUNWAY 15  RUNWAY 33
Latitude: 29-16.732500N29-16.068333N
Longitude: 095-53.356667W095-53.071667W
Elevation: 100.0 ft.100.0 ft.
Traffic pattern: leftleft
Runway heading: 159 true339 true
Markings: NSTD, in poor conditionNSTD, in poor condition
Obstructions: 12 ft. tree, 220 ft. from runway, 33 ft. left of centerline, 1:1 slope to clear
5 FT FENCE ON CNTRLN 98 FT FM THLD, ROAD ON RY EXTENDING BYD THLD.
27 ft. pline, 336 ft. from runway, 62 ft. left of centerline, 5:1 slope to clear
5 FT FENCE PARALLEL TO RY 40 FT FM CNTRLN EXTENDING 117 FT FM THLD.

Airport Ownership and Management from official FAA records

Ownership: Privately-owned
Owner: H & L NEW GULF
132 AVE G
NEW GULF, TX 77462
Phone 979-429-6955
Manager: BOB JACKSON
HANGAR 1
NEW GULF, TX 77462
Phone 979-429-6955

Airport Operational Statistics

Aircraft operations: 100/year *
100% transient general aviation
* for 12-month period ending 21 May 2011

Additional Remarks

LIVESTOCK ON FIELD AND VEHICULAR TRAFFIC ON RY.

Instrument Procedures

There are no published instrument procedures at 1TX4.

Some nearby airports with instrument procedures:

KARM - Wharton Regional Airport (14 nm W)
KBYY - Bay City Regional Airport (18 nm S)
KSGR - Sugar Land Regional Airport (24 nm NE)
KLBX - Texas Gulf Coast Regional Airport (24 nm SE)
KAXH - Houston Southwest Airport (26 nm NE)
 
Loc | Ops | Rwys | IFR | FBO | Links
Com | Nav | Svcs | Stats | Notes


 
Area around 1TX4 (New Gulf Airport)
 
Road maps at: MapQuest Bing Google
 
Aerial photo
WARNING: Photo may not be current or correct
Aerial photo of 1TX4 (New Gulf Airport)
Taken in September 2007

Do you have a better or more recent aerial photo of New Gulf Airport that you would like to share? If so, please send us your photo.

 
Sectional chart

 
Airport distance calculator
Flying to New Gulf Airport? Find the distance to fly.

From to 1TX4

Sunrise and sunset
Times for 24-Oct-2017
 Local
(UTC-5)
 Zulu
(UTC)
Morning civil twilight07:0812:08
Sunrise07:3212:32
Sunset18:4423:44
Evening civil twilight19:0800:08

Current date and time
Zulu (UTC)  24-Oct-2017 11:16:08
Local (UTC-5)  24-Oct-2017 06:16:08
 
METAR
KARM 
14nm W 
241055Z AUTO 36007KT 10SM CLR 14/11 A3023 RMK AO2 T01410107
KBYY 
18nm S 
241055Z AUTO 35004KT 10SM CLR 13/12 A3020 RMK AO2 T01400125
KLBX 
24nm SE 
241053Z AUTO 35006KT 10SM CLR 14/11 A3020 RMK AO2 SLP226 T01390111
KSGR 
24nm NE 
241053Z 01009KT 10SM CLR 17/10 A3021 RMK AO2 SLP231 T01670100
KAXH 
26nm NE 
241055Z AUTO 36006KT 10SM CLR 15/10 A3022 RMK AO2 T01540102
TAF
KLBX 
24nm SE 
240906Z 2409/2506 00000KT P6SM SKC FM241100 01010KT P6SM SKC FM241500 01012G22KT P6SM SKC FM241800 35015G25KT P6SM SKC
KSGR 
24nm NE 
240520Z 2406/2506 00000KT P6SM SKC FM240900 36009KT P6SM SKC FM241500 01012G22KT P6SM SKC FM241800 34017G27KT P6SM SKC FM250100 34009KT P6SM SKC
NOTAMs
Click for the latest NOTAMs
NOTAMs are issued by the DoD/FAA and will open in a separate window not controlled by AirNav.

 

 
 

Would you like to see your business listed on this page?

 If your business provides an interesting product or service to pilots, flight crews, aircraft, or users of the New Gulf Airport, you should consider listing it here.  To start the listing process, click on the button below
 
Add a business
 

Other Pages about New Gulf Airport

Update a link
 
Copyright © AirNav, LLC. All rights reserved. Privacy Policy  Contact